createdAt,value
2018-12-31T00:03:20.951Z,3.91
2018-12-31T00:08:40.542Z,3.91
2018-12-31T00:14:00.094Z,3.91
2018-12-31T00:19:19.565Z,3.90
2018-12-31T00:24:38.750Z,3.88
2018-12-31T00:29:58.615Z,3.86
2018-12-31T00:35:17.871Z,3.88
2018-12-31T00:40:37.293Z,3.88
2018-12-31T00:45:56.524Z,3.89
2018-12-31T00:51:17.012Z,3.91
2018-12-31T00:56:37.711Z,3.95
2018-12-31T01:01:57.239Z,3.94
2018-12-31T01:07:16.637Z,3.93
2018-12-31T01:12:36.571Z,3.88
2018-12-31T01:17:55.771Z,3.86
2018-12-31T01:23:17.835Z,3.83
2018-12-31T01:28:36.990Z,3.78
2018-12-31T01:33:57.071Z,3.70
2018-12-31T01:39:17.651Z,3.69
2018-12-31T01:44:37.048Z,3.71
2018-12-31T01:49:57.435Z,3.76
2018-12-31T01:55:16.569Z,3.76
2018-12-31T02:00:36.798Z,3.71
2018-12-31T02:05:57.451Z,3.65
2018-12-31T02:11:16.968Z,3.67
2018-12-31T02:16:37.411Z,3.67
2018-12-31T02:21:57.329Z,3.58
2018-12-31T02:27:16.829Z,3.55
2018-12-31T02:32:36.395Z,3.45
2018-12-31T02:37:55.782Z,3.33
2018-12-31T02:43:15.684Z,3.27
2018-12-31T02:48:34.866Z,3.29
2018-12-31T02:53:54.298Z,3.36
2018-12-31T02:59:13.514Z,3.32
2018-12-31T03:04:32.463Z,3.26
2018-12-31T03:09:52.331Z,3.15
2018-12-31T03:15:12.002Z,3.10
2018-12-31T03:20:31.446Z,3.02
2018-12-31T03:25:50.847Z,3.06
2018-12-31T03:31:09.919Z,3.16
2018-12-31T03:36:29.009Z,3.17
2018-12-31T03:41:48.510Z,3.01
2018-12-31T03:47:07.980Z,2.91
2018-12-31T03:52:42.257Z,2.79
2018-12-31T03:58:02.528Z,2.66
2018-12-31T04:03:22.221Z,2.61
2018-12-31T04:08:42.209Z,2.63
2018-12-31T04:14:01.410Z,2.70
2018-12-31T04:19:23.564Z,2.63
2018-12-31T04:24:42.492Z,2.76
2018-12-31T04:30:02.236Z,2.72
2018-12-31T04:35:22.711Z,2.62
2018-12-31T04:57:45.791Z,2.54
2018-12-31T05:03:05.016Z,2.57
2018-12-31T05:08:24.596Z,2.62
2018-12-31T05:13:44.555Z,2.57
2018-12-31T05:19:03.758Z,2.65
2018-12-31T05:24:23.377Z,2.75
2018-12-31T05:29:42.889Z,2.75
